Time;durP1;ratioP1;P1;durP2;ratioP2;P2;SDS_P1;SDS_P2;PMS_P1;PMS_P2;Temp;Humidity;BMP_temperature;BMP_pressure;BME280_temperature;BME280_humidity;BME280_pressure;Samples;Min_cycle;Max_cycle;Signal;HPM_P1;HPM_P2
2022/03/12 00:00:11;;;;;;;;;;;9.80;54.60;;;;;;6223168;23;19903;-88
2022/03/12 00:02:39;;;;;;;;;;;9.80;54.60;;;;;;6222932;23;19943;-88
2022/03/12 00:05:25;;;;;;;;;;;9.80;54.30;;;;;;6223335;23;19994;-88
2022/03/12 00:08:04;;;;;;;;;;;9.80;54.40;;;;;;6199053;23;19934;-88
2022/03/12 00:10:46;;;;;;;;;;;9.80;54.10;;;;;;6223533;23;19958;-89
2022/03/12 00:13:27;;;;;;;;;;;9.80;54.20;;;;;;6200515;23;19915;-88
2022/03/12 00:16:23;;;;;;;;;;;9.80;54.60;;;;;;6223339;23;19903;-89
2022/03/12 00:22:12;;;;;;;;;;;9.80;54.20;;;;;;6221979;23;19908;-88
2022/03/12 00:24:40;;;;;;;;;;;9.70;54.00;;;;;;6217275;23;20330;-90
2022/03/12 00:27:31;;;;;;;;;;;9.70;54.20;;;;;;6217956;23;19915;-89
2022/03/12 00:30:16;;;;;;;;;;;9.70;54.30;;;;;;6217955;23;19915;-89
2022/03/12 00:32:49;;;;;;;;;;;9.80;54.20;;;;;;6218075;23;20315;-90
2022/03/12 00:35:18;;;;;;;;;;;9.70;54.20;;;;;;6216638;23;20260;-89
2022/03/12 00:37:49;;;;;;;;;;;9.70;54.10;;;;;;6218300;23;19904;-89
2022/03/12 00:40:38;;;;;;;;;;;;;;;;;;;;;
2022/03/12 00:43:11;;;;;;;;;;;9.80;54.30;;;;;;6219186;23;19987;-89
2022/03/12 00:45:47;;;;;;;;;;;;;;;;;;;;;
2022/03/12 00:51:44;;;;;;;;;;;;;;;;;;;;;
2022/03/12 00:54:36;;;;;;;;;;;9.70;55.10;;;;;;6240122;23;19901;-89
2022/03/12 00:57:11;;;;;;;;;;;9.70;54.50;;;;;;6220233;23;19936;-89
2022/03/12 00:59:39;;;;;;;;;;;9.70;54.60;;;;;;6242010;23;19900;-87
2022/03/12 01:02:14;;;;;;;;;;;9.70;54.60;;;;;;6236423;23;19959;-89
2022/03/12 01:04:43;;;;;;;;;;;9.60;54.60;;;;;;6218839;23;19904;-88
2022/03/12 01:07:10;;;;;;;;;;;9.70;54.70;;;;;;6218152;23;19938;-89
2022/03/12 01:09:36;;;;;;;;;;;9.70;54.80;;;;;;6219285;23;19908;-91
2022/03/12 01:12:09;;;;;;;;;;;9.60;54.80;;;;;;6218084;23;19928;-89
2022/03/12 01:14:41;;;;;;;;;;;9.60;54.90;;;;;;6218675;23;19954;-89
2022/03/12 01:17:31;;;;;;;;;;;;;;;;;;;;;
2022/03/12 01:20:08;;;;;;;;;;;9.60;54.90;;;;;;6219057;23;19988;-89
2022/03/12 01:23:29;;;;;;;;;;;;;;;;;;;;;
2022/03/12 01:25:40;;;;;;;;;;;9.60;55.00;;;;;;6235039;23;19911;-89
2022/03/12 01:28:08;;;;;;;;;;;9.60;55.10;;;;;;6222929;23;19949;-89
2022/03/12 01:30:53;;;;;;;;;;;9.60;55.10;;;;;;6192872;23;19908;-90
2022/03/12 01:33:24;;;;;;;;;;;9.60;55.20;;;;;;6222778;23;19975;-88
2022/03/12 01:35:55;;;;;;;;;;;9.60;55.20;;;;;;6222439;23;19910;-88
2022/03/12 01:38:35;;;;;;;;;;;9.60;55.40;;;;;;6222342;23;19910;-89
2022/03/12 01:41:05;;;;;;;;;;;9.60;55.50;;;;;;6222471;23;19953;-90
2022/03/12 01:43:39;;;;;;;;;;;9.60;55.40;;;;;;6221820;23;20303;-90
2022/03/12 01:46:10;;;;;;;;;;;9.60;55.50;;;;;;6222333;23;19904;-91
2022/03/12 01:48:38;;;;;;;;;;;9.60;55.60;;;;;;6197982;23;19911;-89
2022/03/12 01:51:10;;;;;;;;;;;9.60;55.60;;;;;;6222161;23;19904;-89
2022/03/12 01:53:45;;;;;;;;;;;9.70;55.70;;;;;;6222555;23;19978;-89
2022/03/12 01:56:16;;;;;;;;;;;9.70;55.70;;;;;;6222160;23;19903;-88
2022/03/12 01:59:14;;;;;;;;;;;;;;;;;;;;;
2022/03/12 02:01:45;;;;;;;;;;;9.70;55.80;;;;;;6251382;23;19994;-89
2022/03/12 02:04:14;;;;;;;;;;;9.70;55.90;;;;;;6224278;23;20369;-89
2022/03/12 02:07:00;;;;;;;;;;;;;;;;;;;;;
2022/03/12 02:09:29;;;;;;;;;;;9.70;56.30;;;;;;6251022;23;19988;-87
2022/03/12 02:12:02;;;;;;;;;;;9.70;56.60;;;;;;6198911;23;19907;-88
2022/03/12 02:14:38;;;;;;;;;;;9.70;56.90;;;;;;6224769;23;19934;-89
2022/03/12 02:17:12;;;;;;;;;;;9.70;57.00;;;;;;6225120;23;20306;-89
2022/03/12 02:19:43;;;;;;;;;;;9.80;57.30;;;;;;6233446;23;19927;-90
2022/03/12 02:22:28;;;;;;;;;;;;;;;;;;;;;
2022/03/12 02:25:10;;;;;;;;;;;9.70;57.70;;;;;;6262526;23;19946;-87
2022/03/12 02:27:41;;;;;;;;;;;9.70;58.10;;;;;;6236043;23;19990;-88
2022/03/12 02:30:19;;;;;;;;;;;9.70;58.30;;;;;;6225595;22;19911;-91
2022/03/12 02:32:47;;;;;;;;;;;9.70;58.50;;;;;;6250468;22;19892;-89
2022/03/12 02:35:14;;;;;;;;;;;9.70;58.60;;;;;;6249931;23;19926;-90
2022/03/12 02:37:52;;;;;;;;;;;9.70;58.70;;;;;;6248664;23;19921;-88
2022/03/12 02:40:21;;;;;;;;;;;9.70;59.00;;;;;;6235883;23;19935;-88
2022/03/12 02:45:51;;;;;;;;;;;9.70;59.20;;;;;;6227618;23;19975;-88
2022/03/12 02:48:28;;;;;;;;;;;;;;;;;;;;;
2022/03/12 02:50:56;;;;;;;;;;;9.70;59.50;;;;;;6250910;23;20374;-89
2022/03/12 02:53:40;;;;;;;;;;;;;;;;;;;;;
2022/03/12 02:56:08;;;;;;;;;;;9.70;59.80;;;;;;6252300;23;20025;-90
2022/03/12 02:58:42;;;;;;;;;;;9.70;59.90;;;;;;6225592;23;20361;-88
2022/03/12 03:01:14;;;;;;;;;;;9.60;59.90;;;;;;6223848;23;19912;-88
2022/03/12 03:03:45;;;;;;;;;;;9.60;60.00;;;;;;6224226;23;20314;-89
2022/03/12 03:06:24;;;;;;;;;;;;;;;;;;;;;
2022/03/12 03:08:50;;;;;;;;;;;9.60;60.30;;;;;;6250099;23;20396;-87
2022/03/12 03:11:19;;;;;;;;;;;9.60;60.30;;;;;;6223210;23;19908;-89
2022/03/12 03:13:54;;;;;;;;;;;9.60;60.30;;;;;;6222785;23;19930;-89
2022/03/12 03:16:24;;;;;;;;;;;9.60;60.40;;;;;;6223196;23;19907;-89
2022/03/12 03:19:02;;;;;;;;;;;9.60;60.40;;;;;;6222693;23;19904;-88
2022/03/12 03:21:34;;;;;;;;;;;9.60;60.40;;;;;;6198065;23;19916;-90
2022/03/12 03:24:10;;;;;;;;;;;9.60;60.30;;;;;;6223188;23;19923;-89
2022/03/12 03:26:51;;;;;;;;;;;9.60;60.30;;;;;;6222942;23;19907;-89
2022/03/12 03:29:54;;;;;;;;;;;9.60;60.40;;;;;;6223303;23;19907;-89
2022/03/12 03:32:22;;;;;;;;;;;9.60;60.40;;;;;;6203978;23;19930;-89
2022/03/12 03:35:08;;;;;;;;;;;9.60;60.40;;;;;;6222958;23;19970;-89
2022/03/12 03:37:34;;;;;;;;;;;9.60;60.50;;;;;;6223333;23;19907;-89
2022/03/12 03:42:54;;;;;;;;;;;9.60;60.40;;;;;;6250276;23;19919;-89
2022/03/12 03:45:23;;;;;;;;;;;9.60;60.30;;;;;;6223382;23;19904;-89
2022/03/12 03:47:52;;;;;;;;;;;9.70;60.40;;;;;;6219028;23;19904;-89
2022/03/12 03:50:40;;;;;;;;;;;9.60;60.30;;;;;;6223557;23;19978;-88
2022/03/12 03:53:12;;;;;;;;;;;9.70;60.30;;;;;;6223262;23;20350;-89
2022/03/12 03:55:41;;;;;;;;;;;9.70;60.30;;;;;;6222808;23;19910;-90
2022/03/12 03:58:15;;;;;;;;;;;9.70;60.30;;;;;;6223305;23;19904;-89
2022/03/12 04:01:01;;;;;;;;;;;;;;;;;;;;;
2022/03/12 04:03:38;;;;;;;;;;;9.70;60.40;;;;;;6250801;23;19998;-89
2022/03/12 04:06:07;;;;;;;;;;;9.70;60.40;;;;;;6224449;22;19892;-89
2022/03/12 04:08:38;;;;;;;;;;;9.70;60.40;;;;;;6248924;22;19895;-89
2022/03/12 04:14:29;;;;;;;;;;;9.70;60.40;;;;;;6250866;23;19908;-87
2022/03/12 04:17:06;;;;;;;;;;;9.70;60.40;;;;;;6249779;23;19911;-89
2022/03/12 04:19:34;;;;;;;;;;;9.70;60.50;;;;;;6198401;23;19942;-90
2022/03/12 04:22:08;;;;;;;;;;;9.70;60.60;;;;;;6222946;23;19918;-90
2022/03/12 04:24:38;;;;;;;;;;;9.70;60.60;;;;;;6194169;23;19924;-89
2022/03/12 04:27:17;;;;;;;;;;;9.70;60.80;;;;;;6218313;23;19919;-88
2022/03/12 04:29:49;;;;;;;;;;;9.70;60.80;;;;;;6218650;23;19911;-90
2022/03/12 04:32:23;;;;;;;;;;;9.70;61.00;;;;;;6219374;23;19904;-89
2022/03/12 04:34:54;;;;;;;;;;;9.70;61.10;;;;;;6218404;23;19939;-88
2022/03/12 04:37:22;;;;;;;;;;;9.70;61.30;;;;;;6219329;23;19904;-90
2022/03/12 04:39:54;;;;;;;;;;;9.70;61.40;;;;;;6218009;23;19904;-89
2022/03/12 04:42:36;;;;;;;;;;;9.70;61.60;;;;;;6201384;23;19912;-88
2022/03/12 04:45:02;;;;;;;;;;;9.80;61.70;;;;;;6217877;23;20002;-88
2022/03/12 04:47:30;;;;;;;;;;;9.70;61.70;;;;;;6217730;23;19904;-89
2022/03/12 04:50:08;;;;;;;;;;;9.70;61.90;;;;;;6218985;23;19904;-89
2022/03/12 04:52:54;;;;;;;;;;;9.70;62.20;;;;;;6217811;23;19904;-90
2022/03/12 04:55:32;;;;;;;;;;;9.70;62.30;;;;;;6218484;23;20340;-90
2022/03/12 04:58:26;;;;;;;;;;;;;;;;;;;;;
2022/03/12 05:00:54;;;;;;;;;;;9.60;62.30;;;;;;6218777;23;19987;-88
2022/03/12 05:03:27;;;;;;;;;;;9.60;62.40;;;;;;6218006;23;20318;-89
2022/03/12 05:06:21;;;;;;;;;;;9.60;62.50;;;;;;6192713;23;19995;-89
2022/03/12 05:08:49;;;;;;;;;;;9.50;62.50;;;;;;6217573;23;19931;-88
2022/03/12 05:11:15;;;;;;;;;;;9.50;62.70;;;;;;6217817;23;19904;-88
2022/03/12 05:13:43;;;;;;;;;;;9.50;62.70;;;;;;6217497;23;19904;-88
2022/03/12 05:16:17;;;;;;;;;;;9.50;63.40;;;;;;6217757;23;19927;-87
2022/03/12 05:18:43;;;;;;;;;;;9.40;62.80;;;;;;6194361;23;19908;-87
2022/03/12 05:21:22;;;;;;;;;;;9.40;63.00;;;;;;6219346;23;19926;-91
2022/03/12 05:23:50;;;;;;;;;;;9.40;63.30;;;;;;6234214;23;19916;-88
2022/03/12 05:26:21;;;;;;;;;;;9.30;63.40;;;;;;6198431;23;19916;-90
2022/03/12 05:28:50;;;;;;;;;;;9.30;63.60;;;;;;6224517;23;19990;-90
2022/03/12 05:31:18;;;;;;;;;;;9.30;63.60;;;;;;6224548;23;19903;-90
2022/03/12 05:33:44;;;;;;;;;;;9.20;63.80;;;;;;6211831;23;19975;-88
2022/03/12 05:36:18;;;;;;;;;;;9.20;63.90;;;;;;6240204;22;19903;-88
2022/03/12 05:38:54;;;;;;;;;;;9.10;63.90;;;;;;6247012;22;19918;-89
2022/03/12 05:56:47;;;;;;;;;;;8.90;64.60;;;;;;6240865;23;19903;-91
2022/03/12 06:02:32;;;;;;;;;;;;;;;;;;;;;
2022/03/12 06:05:27;;;;;;;;;;;8.80;65.10;;;;;;6241541;23;19987;-90
2022/03/12 06:08:18;;;;;;;;;;;;;;;;;;;;;
2022/03/12 06:11:00;;;;;;;;;;;;;;;;;;;;;
2022/03/12 06:13:46;;;;;;;;;;;8.70;65.60;;;;;;6248941;23;19987;-94
2022/03/12 06:16:34;;;;;;;;;;;8.80;65.80;;;;;;6221963;23;19954;-90
2022/03/12 06:19:23;;;;;;;;;;;8.70;65.80;;;;;;6222039;23;20277;-90
2022/03/12 06:22:05;;;;;;;;;;;8.70;65.90;;;;;;6208277;23;19912;-91
2022/03/12 06:25:01;;;;;;;;;;;;;;;;;;;;;
2022/03/12 06:27:37;;;;;;;;;;;8.70;66.00;;;;;;6219135;23;19991;-92
2022/03/12 06:30:28;;;;;;;;;;;8.70;66.30;;;;;;6217679;23;20326;-89
2022/03/12 06:32:55;;;;;;;;;;;8.70;66.40;;;;;;6217276;23;19931;-90
2022/03/12 06:35:26;;;;;;;;;;;8.70;66.50;;;;;;6217222;23;20390;-89
2022/03/12 06:38:11;;;;;;;;;;;;;;;;;;;;;
2022/03/12 06:41:10;;;;;;;;;;;;;;;;;;;;;
2022/03/12 06:43:52;;;;;;;;;;;;;;;;;;;;;
2022/03/12 06:46:54;;;;;;;;;;;;;;;;;;;;;
2022/03/12 06:49:41;;;;;;;;;;;8.70;66.80;;;;;;6220361;23;19984;-89
2022/03/12 06:52:41;;;;;;;;;;;8.70;67.00;;;;;;6196323;23;19919;-93
2022/03/12 06:58:05;;;;;;;;;;;8.70;67.30;;;;;;6157886;23;19904;-91
2022/03/12 07:10:15;;;;;;;;;;;8.70;67.60;;;;;;6127978;23;19905;-89
2022/03/12 07:16:07;;;;;;;;;;;;;;;;;;;;;
2022/03/12 07:21:37;;;;;;;;;;;8.80;68.00;;;;;;6219774;23;19926;-89
2022/03/12 07:27:35;;;;;;;;;;;8.90;68.30;;;;;;6221400;23;19904;-90
2022/03/12 07:30:06;;;;;;;;;;;8.90;68.20;;;;;;6219912;23;19904;-91
2022/03/12 07:35:55;;;;;;;;;;;9.00;68.40;;;;;;6206648;23;19932;-90
2022/03/12 07:38:43;;;;;;;;;;;9.00;68.60;;;;;;6220242;23;19904;-90
2022/03/12 07:41:30;;;;;;;;;;;9.10;68.60;;;;;;6218754;23;19911;-90
2022/03/12 07:44:05;;;;;;;;;;;9.10;68.90;;;;;;6190869;23;19946;-89
2022/03/12 07:46:40;;;;;;;;;;;9.10;68.80;;;;;;6232222;23;19904;-89
2022/03/12 07:49:18;;;;;;;;;;;;;;;;;;;;;
2022/03/12 07:51:54;;;;;;;;;;;9.20;69.20;;;;;;6219784;23;19979;-89
2022/03/12 07:54:23;;;;;;;;;;;9.30;69.30;;;;;;6218269;23;19935;-89
2022/03/12 07:57:28;;;;;;;;;;;;;;;;;;;;;
2022/03/12 08:00:29;;;;;;;;;;;9.30;69.30;;;;;;6215497;23;19986;-90
2022/03/12 08:05:46;;;;;;;;;;;9.40;69.90;;;;;;6218646;23;19908;-89
2022/03/12 08:20:26;;;;;;;;;;;9.70;70.60;;;;;;6202656;23;19944;-90
2022/03/12 08:22:55;;;;;;;;;;;9.80;70.70;;;;;;6178866;23;19912;-91
2022/03/12 08:25:33;;;;;;;;;;;;;;;;;;;;;
2022/03/12 08:28:20;;;;;;;;;;;9.90;71.20;;;;;;6219234;23;19940;-90
2022/03/12 08:36:44;;;;;;;;;;;10.20;71.60;;;;;;6205734;23;19911;-90
2022/03/12 08:42:18;;;;;;;;;;;10.30;72.20;;;;;;6203323;23;19912;-88
2022/03/12 08:44:58;;;;;;;;;;;10.50;72.50;;;;;;6229205;22;19899;-91
2022/03/12 08:47:29;;;;;;;;;;;10.50;72.90;;;;;;6218739;23;19892;-88
2022/03/12 08:50:18;;;;;;;;;;;10.60;73.60;;;;;;6243872;22;19908;-91
2022/03/12 08:53:17;;;;;;;;;;;10.60;73.50;;;;;;6185945;22;19899;-90
2022/03/12 08:56:03;;;;;;;;;;;10.70;74.10;;;;;;6243823;23;19892;-93
2022/03/12 09:04:24;;;;;;;;;;;10.90;75.10;;;;;;6219852;23;19904;-87
2022/03/12 09:13:44;;;;;;;;;;;11.10;76.30;;;;;;6200972;23;19904;-92
2022/03/12 09:16:41;;;;;;;;;;;11.20;76.20;;;;;;6217859;23;19904;-92
2022/03/12 09:29:38;;;;;;;;;;;;;;;;;;;;;
2022/03/12 09:32:53;;;;;;;;;;;11.50;77.40;;;;;;6068743;23;19981;-90
2022/03/12 09:48:18;;;;;;;;;;;11.80;77.90;;;;;;5864195;24;19908;-89
2022/03/12 09:54:04;;;;;;;;;;;;;;;;;;;;;
2022/03/12 10:00:26;;;;;;;;;;;;;;;;;;;;;
2022/03/12 10:12:24;;;;;;;;;;;12.40;78.60;;;;;;6056253;23;19913;-91
2022/03/12 10:18:20;;;;;;;;;;;12.40;78.60;;;;;;5983104;24;19958;-91
2022/03/12 10:33:14;;;;;;;;;;;12.70;78.30;;;;;;6124127;23;19893;-92
2022/03/12 10:39:11;;;;;;;;;;;12.90;78.20;;;;;;6034031;23;19967;-91
2022/03/12 10:42:12;;;;;;;;;;;12.90;78.20;;;;;;6157873;23;20393;-90
2022/03/12 10:50:37;;;;;;;;;;;13.00;78.00;;;;;;6188207;23;20321;-92
2022/03/12 10:53:06;;;;;;;;;;;13.00;77.70;;;;;;6156825;23;20279;-90
2022/03/12 10:55:40;;;;;;;;;;;13.10;77.40;;;;;;6190922;23;19903;-91
2022/03/12 10:58:20;;;;;;;;;;;13.10;77.00;;;;;;6222903;23;20314;-91
2022/03/12 11:00:56;;;;;;;;;;;13.20;76.80;;;;;;6249938;23;20258;-91
2022/03/12 11:03:55;;;;;;;;;;;;;;;;;;;;;
2022/03/12 11:06:44;;;;;;;;;;;;;;;;;;;;;
2022/03/12 11:09:43;;;;;;;;;;;;;;;;;;;;;
2022/03/12 11:12:48;;;;;;;;;;;13.30;76.40;;;;;;6243642;23;19994;-89
2022/03/12 11:22:08;;;;;;;;;;;13.40;76.10;;;;;;6068889;23;19972;-91
2022/03/12 11:25:06;;;;;;;;;;;13.40;76.10;;;;;;6155069;23;19911;-90
2022/03/12 11:27:50;;;;;;;;;;;13.40;76.00;;;;;;6156413;23;19923;-90
2022/03/12 11:36:31;;;;;;;;;;;;;;;;;;;;;
2022/03/12 11:39:27;;;;;;;;;;;;;;;;;;;;;
2022/03/12 11:42:06;;;;;;;;;;;13.60;75.70;;;;;;6249810;23;19990;-89
2022/03/12 11:44:35;;;;;;;;;;;13.70;75.60;;;;;;6223517;23;19904;-90
2022/03/12 11:47:17;;;;;;;;;;;13.80;75.30;;;;;;6222684;23;19903;-87
2022/03/12 11:49:48;;;;;;;;;;;13.80;75.20;;;;;;6223313;23;19904;-90
2022/03/12 11:52:21;;;;;;;;;;;13.80;75.20;;;;;;6223568;23;19908;-91
2022/03/12 11:54:48;;;;;;;;;;;13.90;75.10;;;;;;6249898;23;19908;-89
2022/03/12 11:57:47;;;;;;;;;;;14.00;75.20;;;;;;6222942;23;19910;-89
2022/03/12 12:00:45;;;;;;;;;;;;;;;;;;;;;
2022/03/12 12:09:11;;;;;;;;;;;;;;;;;;;;;
2022/03/12 12:14:58;;;;;;;;;;;14.20;75.70;;;;;;6248743;22;19922;-92
2022/03/12 12:17:53;;;;;;;;;;;14.20;75.70;;;;;;6274887;22;19899;-93
2022/03/12 12:24:09;;;;;;;;;;;14.20;75.60;;;;;;6253623;23;19912;-91
2022/03/12 12:26:43;;;;;;;;;;;14.30;75.80;;;;;;6248551;23;19946;-91
2022/03/12 12:29:22;;;;;;;;;;;;;;;;;;;;;
2022/03/12 12:32:07;;;;;;;;;;;14.30;75.60;;;;;;6218233;23;20267;-90
2022/03/12 12:34:45;;;;;;;;;;;;;;;;;;;;;
2022/03/12 12:37:43;;;;;;;;;;;14.30;75.40;;;;;;6218810;23;19979;-91
2022/03/12 12:40:32;;;;;;;;;;;14.30;75.50;;;;;;6217616;23;19904;-89
2022/03/12 12:43:23;;;;;;;;;;;;;;;;;;;;;
2022/03/12 12:45:57;;;;;;;;;;;14.40;75.30;;;;;;6218743;23;19995;-90
2022/03/12 12:48:51;;;;;;;;;;;;;;;;;;;;;
2022/03/12 12:51:46;;;;;;;;;;;14.50;74.90;;;;;;6218819;23;19932;-92
2022/03/12 12:54:24;;;;;;;;;;;;;;;;;;;;;
2022/03/12 12:57:17;;;;;;;;;;;14.60;74.60;;;;;;6217471;23;19991;-89
2022/03/12 13:03:07;;;;;;;;;;;14.60;74.60;;;;;;6175934;23;19911;-92
2022/03/12 13:06:08;;;;;;;;;;;14.60;74.50;;;;;;6117470;23;19911;-91
2022/03/12 13:12:19;;;;;;;;;;;14.70;74.50;;;;;;6166748;23;19962;-89
2022/03/12 13:15:11;;;;;;;;;;;14.70;74.20;;;;;;6216266;23;19904;-90
2022/03/12 13:17:46;;;;;;;;;;;14.80;74.20;;;;;;6101235;23;19908;-88
2022/03/12 13:21:00;;;;;;;;;;;14.80;74.20;;;;;;6102194;23;20334;-89
2022/03/12 13:23:51;;;;;;;;;;;14.80;74.10;;;;;;6039652;23;19920;-89
2022/03/12 13:26:26;;;;;;;;;;;14.90;73.90;;;;;;6039233;23;19974;-89
2022/03/12 13:28:53;;;;;;;;;;;14.90;73.80;;;;;;6014767;23;20316;-88
2022/03/12 13:32:01;;;;;;;;;;;;;;;;;;;;;
2022/03/12 13:34:57;;;;;;;;;;;;;;;;;;;;;
2022/03/12 13:43:45;;;;;;;;;;;;;;;;;;;;;
2022/03/12 13:46:47;;;;;;;;;;;;;;;;;;;;;
2022/03/12 13:49:24;;;;;;;;;;;14.90;72.80;;;;;;6168415;23;19991;-88
2022/03/12 13:52:23;;;;;;;;;;;;;;;;;;;;;
2022/03/12 13:55:23;;;;;;;;;;;15.00;72.70;;;;;;6212421;23;19948;-90
2022/03/12 14:04:53;;;;;;;;;;;;;;;;;;;;;
2022/03/12 14:10:54;;;;;;;;;;;15.30;71.50;;;;;;6211397;23;19900;-91
2022/03/12 14:13:38;;;;;;;;;;;15.40;71.50;;;;;;6196858;23;19908;-94
2022/03/12 14:16:27;;;;;;;;;;;15.40;71.40;;;;;;6220174;23;19989;-93
2022/03/12 14:21:56;;;;;;;;;;;15.40;71.00;;;;;;6188284;23;19962;-91
2022/03/12 14:27:24;;;;;;;;;;;15.40;70.70;;;;;;6212476;23;19940;-90
2022/03/12 14:29:58;;;;;;;;;;;15.40;70.60;;;;;;6218541;23;19916;-93
2022/03/12 14:32:40;;;;;;;;;;;15.40;70.60;;;;;;6193834;23;20289;-91
2022/03/12 14:35:17;;;;;;;;;;;15.40;70.70;;;;;;6171456;23;19954;-92
2022/03/12 14:41:02;;;;;;;;;;;;;;;;;;;;;
2022/03/12 14:43:31;;;;;;;;;;;15.40;70.60;;;;;;6219853;23;19994;-91
2022/03/12 14:46:20;;;;;;;;;;;15.40;70.50;;;;;;6193817;23;19958;-92
2022/03/12 14:48:55;;;;;;;;;;;15.40;70.10;;;;;;6197013;23;20302;-92
2022/03/12 14:51:42;;;;;;;;;;;;;;;;;;;;;
2022/03/12 14:54:18;;;;;;;;;;;15.40;69.80;;;;;;6197286;23;19999;-92
2022/03/12 14:56:47;;;;;;;;;;;15.40;69.80;;;;;;6194391;23;20208;-93
2022/03/12 14:59:25;;;;;;;;;;;15.30;69.80;;;;;;6191930;23;19904;-92
2022/03/12 15:02:20;;;;;;;;;;;15.30;69.90;;;;;;6219796;23;20002;-93
2022/03/12 15:04:47;;;;;;;;;;;15.20;69.60;;;;;;6174216;23;19904;-93
2022/03/12 15:07:35;;;;;;;;;;;15.20;69.60;;;;;;6196034;23;19927;-93
2022/03/12 15:10:06;;;;;;;;;;;15.10;69.50;;;;;;6218806;23;19904;-91
2022/03/12 15:12:40;;;;;;;;;;;15.10;69.60;;;;;;6193628;23;20222;-93
2022/03/12 15:24:08;;;;;;;;;;;15.00;69.40;;;;;;6205667;23;19912;-93
2022/03/12 15:27:09;;;;;;;;;;;;;;;;;;;;;
2022/03/12 15:30:01;;;;;;;;;;;15.00;69.40;;;;;;6231429;23;19995;-95
2022/03/12 15:32:38;;;;;;;;;;;15.10;69.60;;;;;;6258561;23;19990;-94
2022/03/12 15:35:37;;;;;;;;;;;15.00;69.60;;;;;;6228636;23;19907;-92
2022/03/12 15:38:19;;;;;;;;;;;;;;;;;;;;;
2022/03/12 15:41:03;;;;;;;;;;;15.00;69.60;;;;;;6251882;23;19986;-92
2022/03/12 15:43:31;;;;;;;;;;;15.00;69.70;;;;;;6202561;23;19915;-92
2022/03/12 15:46:15;;;;;;;;;;;;;;;;;;;;;
2022/03/12 15:48:47;;;;;;;;;;;14.90;69.70;;;;;;6272654;22;19892;-92
2022/03/12 15:51:23;;;;;;;;;;;14.90;69.80;;;;;;6249699;22;19907;-91
2022/03/12 15:53:54;;;;;;;;;;;14.90;69.70;;;;;;6223655;22;19947;-92
2022/03/12 15:56:29;;;;;;;;;;;14.90;69.80;;;;;;6246138;23;19904;-91
2022/03/12 15:58:57;;;;;;;;;;;14.90;69.80;;;;;;6242805;23;19903;-88
2022/03/12 16:01:38;;;;;;;;;;;;;;;;;;;;;
2022/03/12 16:04:19;;;;;;;;;;;;;;;;;;;;;
2022/03/12 16:06:55;;;;;;;;;;;15.20;69.00;;;;;;6248852;23;19899;-90
2022/03/12 16:09:32;;;;;;;;;;;15.30;68.50;;;;;;6238875;23;19904;-92
2022/03/12 16:12:37;;;;;;;;;;;15.40;68.40;;;;;;6222420;23;20233;-91
2022/03/12 16:15:09;;;;;;;;;;;15.50;68.40;;;;;;6228310;23;19908;-90
2022/03/12 16:17:52;;;;;;;;;;;;;;;;;;;;;
2022/03/12 16:20:25;;;;;;;;;;;15.50;68.00;;;;;;6249770;23;19983;-90
2022/03/12 16:23:14;;;;;;;;;;;15.50;68.00;;;;;;6222969;23;19916;-92
2022/03/12 16:25:39;;;;;;;;;;;15.40;68.10;;;;;;6225939;23;19914;-90
2022/03/12 16:28:12;;;;;;;;;;;15.20;67.70;;;;;;6222598;23;19903;-92
2022/03/12 16:30:40;;;;;;;;;;;15.20;68.10;;;;;;6219056;23;19920;-88
2022/03/12 16:36:32;;;;;;;;;;;;;;;;;;;;;
2022/03/12 16:38:59;;;;;;;;;;;14.90;68.60;;;;;;6249502;23;20397;-91
2022/03/12 16:41:24;;;;;;;;;;;14.80;68.70;;;;;;6223052;23;19943;-89
2022/03/12 16:43:54;;;;;;;;;;;14.80;68.80;;;;;;6222302;23;19907;-90
2022/03/12 16:46:28;;;;;;;;;;;14.70;68.90;;;;;;6223713;23;19907;-90
2022/03/12 16:49:16;;;;;;;;;;;14.70;69.00;;;;;;6197194;23;20341;-91
2022/03/12 16:54:48;;;;;;;;;;;14.60;69.20;;;;;;6224780;23;19914;-90
2022/03/12 16:57:21;;;;;;;;;;;14.60;69.40;;;;;;6199244;23;19914;-90
2022/03/12 17:00:11;;;;;;;;;;;14.50;69.50;;;;;;6221916;23;19991;-90
2022/03/12 17:02:45;;;;;;;;;;;14.50;69.90;;;;;;6247734;23;19912;-91
2022/03/12 17:08:24;;;;;;;;;;;14.50;70.20;;;;;;6227875;23;19910;-91
2022/03/12 17:11:31;;;;;;;;;;;;;;;;;;;;;
2022/03/12 17:17:35;;;;;;;;;;;;;;;;;;;;;
2022/03/12 17:20:10;;;;;;;;;;;14.20;71.50;;;;;;6249140;23;19948;-90
2022/03/12 17:22:45;;;;;;;;;;;14.10;71.80;;;;;;6222895;23;20218;-90
2022/03/12 17:25:30;;;;;;;;;;;14.10;72.00;;;;;;6223020;23;19979;-90
2022/03/12 17:28:11;;;;;;;;;;;14.00;72.10;;;;;;6249619;23;20265;-90
2022/03/12 17:30:42;;;;;;;;;;;13.90;72.10;;;;;;6223612;23;19955;-89
2022/03/12 17:33:31;;;;;;;;;;;13.90;72.20;;;;;;6251171;23;19908;-90
2022/03/12 17:36:26;;;;;;;;;;;;;;;;;;;;;
2022/03/12 17:38:56;;;;;;;;;;;13.80;72.60;;;;;;6274677;22;19895;-91
2022/03/12 17:41:29;;;;;;;;;;;13.70;72.70;;;;;;6223388;23;19892;-90
2022/03/12 17:44:02;;;;;;;;;;;13.60;72.90;;;;;;6247319;23;19979;-90
2022/03/12 17:46:58;;;;;;;;;;;;;;;;;;;;;
2022/03/12 17:49:29;;;;;;;;;;;13.50;72.90;;;;;;6236862;23;19996;-90
2022/03/12 17:51:57;;;;;;;;;;;13.50;73.10;;;;;;6198556;23;19943;-89
2022/03/12 17:54:39;;;;;;;;;;;13.50;73.10;;;;;;6222973;23;19979;-89
2022/03/12 17:57:08;;;;;;;;;;;13.40;73.20;;;;;;6221978;23;19903;-90
2022/03/12 17:59:50;;;;;;;;;;;13.30;73.30;;;;;;6223261;23;20332;-90
2022/03/12 18:02:51;;;;;;;;;;;13.30;73.40;;;;;;6197629;23;19916;-89
2022/03/12 18:05:33;;;;;;;;;;;;;;;;;;;;;
2022/03/12 18:08:15;;;;;;;;;;;13.20;73.60;;;;;;6225338;23;19978;-89
2022/03/12 18:11:12;;;;;;;;;;;;;;;;;;;;;
2022/03/12 18:13:29;;;;;;;;;;;13.10;74.00;;;;;;6243689;23;19937;-91
2022/03/12 18:16:15;;;;;;;;;;;13.10;74.00;;;;;;6249032;23;19911;-89
2022/03/12 18:18:51;;;;;;;;;;;13.10;74.00;;;;;;6200210;23;19946;-90
2022/03/12 18:21:19;;;;;;;;;;;13.10;74.10;;;;;;6222852;23;19907;-91
2022/03/12 18:24:08;;;;;;;;;;;13.00;74.20;;;;;;6196860;23;19915;-87
2022/03/12 18:26:37;;;;;;;;;;;13.00;74.40;;;;;;6222101;23;19903;-93
2022/03/12 18:29:19;;;;;;;;;;;13.00;74.50;;;;;;6222109;23;19907;-93
2022/03/12 18:31:45;;;;;;;;;;;12.90;74.50;;;;;;6194868;23;20327;-91
2022/03/12 18:34:15;;;;;;;;;;;12.90;74.50;;;;;;6217555;23;19904;-92
2022/03/12 18:36:51;;;;;;;;;;;12.90;74.50;;;;;;6218541;23;19911;-91
2022/03/12 18:39:28;;;;;;;;;;;12.90;74.70;;;;;;6197143;23;19908;-90
2022/03/12 18:42:22;;;;;;;;;;;;;;;;;;;;;
2022/03/12 18:50:51;;;;;;;;;;;12.70;75.10;;;;;;6214507;23;19904;-93
2022/03/12 18:53:25;;;;;;;;;;;12.70;75.10;;;;;;6219937;23;19904;-92
2022/03/12 18:56:04;;;;;;;;;;;;;;;;;;;;;
2022/03/12 18:58:38;;;;;;;;;;;12.60;75.30;;;;;;6220061;23;19988;-92
2022/03/12 19:01:12;;;;;;;;;;;12.60;75.40;;;;;;6194921;23;19914;-92
2022/03/12 19:03:58;;;;;;;;;;;12.60;75.40;;;;;;6219379;23;19923;-92
2022/03/12 19:06:23;;;;;;;;;;;12.50;75.30;;;;;;6217852;23;19938;-91
2022/03/12 19:08:59;;;;;;;;;;;12.50;75.40;;;;;;6219655;23;19904;-90
2022/03/12 19:11:25;;;;;;;;;;;12.50;75.50;;;;;;6195467;23;19955;-91
2022/03/12 19:13:55;;;;;;;;;;;12.50;75.40;;;;;;6194380;23;19907;-92
2022/03/12 19:16:33;;;;;;;;;;;12.40;75.50;;;;;;6195262;23;19927;-90
2022/03/12 19:19:28;;;;;;;;;;;;;;;;;;;;;
2022/03/12 19:22:02;;;;;;;;;;;12.40;75.60;;;;;;6238963;23;19900;-91
2022/03/12 19:24:28;;;;;;;;;;;12.40;75.60;;;;;;6218882;23;19932;-91
2022/03/12 19:27:09;;;;;;;;;;;;;;;;;;;;;
2022/03/12 19:29:40;;;;;;;;;;;12.30;75.70;;;;;;6224856;23;19946;-90
2022/03/12 19:32:09;;;;;;;;;;;12.30;75.90;;;;;;6199905;23;19965;-89
2022/03/12 19:34:38;;;;;;;;;;;12.30;75.90;;;;;;6224385;23;19904;-89
2022/03/12 19:37:04;;;;;;;;;;;12.30;76.00;;;;;;6223729;23;19903;-91
2022/03/12 19:39:34;;;;;;;;;;;12.20;76.00;;;;;;6250725;23;19903;-89
2022/03/12 19:42:03;;;;;;;;;;;12.20;76.10;;;;;;6224283;23;19915;-91
2022/03/12 19:44:29;;;;;;;;;;;12.20;76.20;;;;;;6250551;23;19903;-90
2022/03/12 19:46:57;;;;;;;;;;;12.20;76.40;;;;;;6223729;23;19946;-90
2022/03/12 19:49:29;;;;;;;;;;;12.20;76.40;;;;;;6223494;23;19907;-91
2022/03/12 19:52:04;;;;;;;;;;;12.10;76.40;;;;;;6223887;23;19904;-91
2022/03/12 19:54:33;;;;;;;;;;;12.10;76.50;;;;;;6200033;23;19962;-90
2022/03/12 19:57:06;;;;;;;;;;;12.10;76.40;;;;;;6211024;23;20293;-90
2022/03/12 19:59:32;;;;;;;;;;;12.10;76.40;;;;;;6224007;23;19926;-90
2022/03/12 20:02:08;;;;;;;;;;;;;;;;;;;;;
2022/03/12 20:04:41;;;;;;;;;;;12.10;76.50;;;;;;6250466;23;19971;-90
2022/03/12 20:07:16;;;;;;;;;;;12.10;76.60;;;;;;6223408;23;19914;-92
2022/03/12 20:10:08;;;;;;;;;;;12.10;76.70;;;;;;6223596;23;19904;-93
2022/03/12 20:12:44;;;;;;;;;;;12.10;76.70;;;;;;6223595;23;19904;-90
2022/03/12 20:15:12;;;;;;;;;;;12.00;76.80;;;;;;6225057;23;19907;-91
2022/03/12 20:17:40;;;;;;;;;;;12.00;76.80;;;;;;6249840;23;19939;-91
2022/03/12 20:20:09;;;;;;;;;;;12.00;76.80;;;;;;6222998;23;19939;-90
2022/03/12 20:22:39;;;;;;;;;;;12.00;76.80;;;;;;6223223;23;20041;-91
2022/03/12 20:25:11;;;;;;;;;;;11.90;76.80;;;;;;6222859;23;19910;-91
2022/03/12 20:27:44;;;;;;;;;;;11.90;76.90;;;;;;6223030;23;19957;-91
2022/03/12 20:30:22;;;;;;;;;;;11.90;77.00;;;;;;6216768;23;20246;-91
2022/03/12 20:32:52;;;;;;;;;;;11.90;77.00;;;;;;6196990;23;19912;-90
2022/03/12 20:35:28;;;;;;;;;;;11.80;77.00;;;;;;6223572;23;19908;-90
2022/03/12 20:38:23;;;;;;;;;;;;;;;;;;;;;
2022/03/12 20:41:01;;;;;;;;;;;11.70;77.10;;;;;;6249352;23;19979;-91